Time;durP1;ratioP1;P1;durP2;ratioP2;P2;SDS_P1;SDS_P2;PMS_P1;PMS_P2;Temp;Humidity;BMP_temperature;BMP_pressure;BME280_temperature;BME280_humidity;BME280_pressure;Samples;Min_cycle;Max_cycle;Signal;HPM_P1;HPM_P2
2022/01/08 00:01:38;;;;;;;;;0.00;0.00;;;;;6.65;81.90;100761.47;5074766;28;45706;-77
2022/01/08 00:04:04;;;;;;;;;0.00;0.00;;;;;6.58;81.70;100775.75;5075839;28;45584;-77
2022/01/08 00:06:31;;;;;;;;;0.00;0.00;;;;;6.54;82.16;100782.00;5075427;28;45770;-78
2022/01/08 00:08:58;;;;;;;;;0.00;0.00;;;;;6.58;81.96;100777.50;5075767;28;46197;-78
2022/01/08 00:11:27;;;;;;;;;0.00;0.00;;;;;6.53;81.94;100775.13;5074088;28;45978;-78
2022/01/08 00:13:53;;;;;;;;;0.00;0.00;;;;;6.50;81.83;100790.91;5074431;28;45820;-77
2022/01/08 00:16:19;;;;;;;;;0.00;0.00;;;;;6.45;82.00;100785.09;5075843;28;46241;-77
2022/01/08 00:18:44;;;;;;;;;0.00;0.00;;;;;6.39;81.90;100798.41;5075904;28;45959;-78
2022/01/08 00:21:09;;;;;;;;;0.00;0.00;;;;;6.39;81.70;100797.56;5075891;28;45636;-76
2022/01/08 00:23:35;;;;;;;;;0.00;0.00;;;;;6.32;81.84;100797.88;5075756;28;45780;-78
2022/01/08 00:26:00;;;;;;;;;0.00;0.00;;;;;6.35;82.49;100822.06;5057011;28;46374;-77
2022/01/08 00:28:26;;;;;;;;;0.00;0.00;;;;;6.28;81.80;100798.97;5075766;28;45580;-76
2022/01/08 00:30:53;;;;;;;;;0.00;0.00;;;;;6.30;81.49;100804.09;5075533;28;45666;-77
2022/01/08 00:33:19;;;;;;;;;0.00;0.00;;;;;6.26;81.76;100800.78;5075539;28;45833;-78
2022/01/08 00:35:44;;;;;;;;;0.00;0.00;;;;;6.19;82.15;100801.19;5075331;28;46796;-77
2022/01/08 00:38:10;;;;;;;;;0.00;0.00;;;;;6.22;82.23;100812.28;5075343;28;46290;-76
2022/01/08 00:40:35;;;;;;;;;0.00;0.00;;;;;6.20;82.11;100808.09;5075327;28;45765;-77
2022/01/08 00:43:01;;;;;;;;;0.75;0.00;;;;;6.16;81.39;100822.13;5075479;28;45542;-78
2022/01/08 00:45:27;;;;;;;;;0.00;0.00;;;;;6.14;81.32;100823.97;5074215;28;46344;-78
2022/01/08 00:47:52;;;;;;;;;0.00;0.00;;;;;6.04;81.52;100813.19;5075471;28;46060;-78
2022/01/08 00:50:18;;;;;;;;;0.00;0.00;;;;;6.13;81.77;100840.50;5075496;28;45615;-76
2022/01/08 00:52:43;;;;;;;;;0.00;0.00;;;;;6.10;82.00;100838.06;5075225;28;45862;-77
2022/01/08 00:55:10;;;;;;;;;0.00;0.00;;;;;6.09;81.76;100842.41;5075078;28;45809;-77
2022/01/08 00:57:36;;;;;;;;;0.00;0.00;;;;;6.04;81.65;100841.81;5073247;28;47599;-77
2022/01/08 01:00:04;;;;;;;;;1.00;0.00;;;;;6.02;81.64;100853.19;5074795;28;45616;-77
2022/01/08 01:02:30;;;;;;;;;0.00;0.00;;;;;6.11;81.77;100860.53;5075170;28;45497;-77
2022/01/08 01:04:55;;;;;;;;;0.75;0.00;;;;;6.08;81.96;100848.53;5074422;28;47230;-77
2022/01/08 01:07:21;;;;;;;;;0.50;0.00;;;;;6.08;81.72;100856.34;5074958;28;46950;-77
2022/01/08 01:09:46;;;;;;;;;0.00;0.00;;;;;6.09;81.93;100865.00;5075341;28;45912;-76
2022/01/08 01:12:13;;;;;;;;;0.00;0.00;;;;;6.06;81.89;100860.75;5074893;28;45628;-77
2022/01/08 01:14:38;;;;;;;;;0.00;0.00;;;;;6.09;82.16;100878.00;5070224;28;46494;-75
2022/01/08 01:17:04;;;;;;;;;1.00;0.00;;;;;6.03;82.03;100862.69;5053147;28;47367;-76
2022/01/08 01:19:30;;;;;;;;;0.25;0.00;;;;;6.08;82.21;100871.94;5054556;28;45562;-78
2022/01/08 01:21:58;;;;;;;;;0.00;0.00;;;;;6.07;82.20;100866.81;5054956;28;45543;-75
2022/01/08 01:24:25;;;;;;;;;0.00;0.00;;;;;5.99;82.59;100854.19;5054370;28;45902;-78
2022/01/08 01:29:47;;;;;;;;;0.75;0.00;;;;;6.03;82.98;100858.31;5054306;28;45858;-77
2022/01/08 01:49:19;;;;;;;;;0.00;0.00;;;;;5.89;82.56;100845.97;5054281;28;46092;-77
2022/01/08 01:51:45;;;;;;;;;0.00;0.00;;;;;5.98;82.05;100868.09;5053444;28;45606;-78
2022/01/08 01:54:11;;;;;;;;;2.00;0.00;;;;;5.95;82.21;100870.84;5054335;28;45535;-77
2022/01/08 01:56:38;;;;;;;;;0.50;0.00;;;;;6.00;82.06;100863.66;5054686;28;45601;-75
2022/01/08 02:02:25;;;;;;;;;1.50;0.00;;;;;6.00;82.35;100858.44;5053937;28;45984;-77
2022/01/08 02:04:50;;;;;;;;;1.00;0.00;;;;;5.98;82.15;100862.91;5054150;28;45713;-77
2022/01/08 02:07:16;;;;;;;;;0.25;0.00;;;;;6.02;81.91;100864.44;5053838;28;46464;-76
2022/01/08 02:09:41;;;;;;;;;0.50;0.00;;;;;6.01;81.68;100849.75;5052223;28;47255;-78
2022/01/08 02:12:17;;;;;;;;;0.00;0.00;;;;;6.06;81.88;100865.97;5053589;28;45620;-77
2022/01/08 02:18:46;;;;;;;;;1.00;0.00;;;;;6.04;81.91;100859.16;5073228;28;45862;-77
2022/01/08 02:21:12;;;;;;;;;0.00;0.00;;;;;6.06;81.59;100868.56;5073664;28;46106;-78
2022/01/08 02:23:39;;;;;;;;;0.00;0.00;;;;;6.07;81.94;100867.66;5056266;28;45723;-78
2022/01/08 02:26:06;;;;;;;;;1.00;0.00;;;;;6.06;81.81;100875.50;5077101;28;45639;-77
2022/01/08 02:28:33;;;;;;;;;0.00;0.00;;;;;6.05;81.96;100881.63;5077328;28;46475;-77
2022/01/08 02:30:58;;;;;;;;;0.00;0.00;;;;;6.04;81.91;100875.63;5077317;28;45996;-77
2022/01/08 02:33:27;;;;;;;;;1.00;0.00;;;;;6.03;81.84;100879.13;5076082;28;45573;-78
2022/01/08 02:35:53;;;;;;;;;0.00;0.00;;;;;6.03;81.75;100879.13;5077208;28;45739;-76
2022/01/08 02:38:20;;;;;;;;;0.00;0.00;;;;;6.03;81.81;100878.28;5076908;28;47518;-76
2022/01/08 02:40:56;;;;;;;;;0.75;0.00;;;;;6.04;81.68;100874.78;5076983;28;46415;-77
2022/01/08 02:43:23;;;;;;;;;1.00;0.00;;;;;6.02;81.96;100876.59;5060248;28;45562;-77
2022/01/08 02:45:49;;;;;;;;;0.50;0.25;;;;;6.00;81.33;100874.06;5076877;28;45609;-77
2022/01/08 02:48:14;;;;;;;;;0.00;0.00;;;;;6.01;81.72;100872.31;5076727;28;46400;-79
2022/01/08 02:50:40;;;;;;;;;0.00;0.00;;;;;6.00;81.56;100875.81;5077002;28;45547;-78
2022/01/08 02:53:06;;;;;;;;;0.00;0.00;;;;;5.94;81.51;100873.53;5077367;28;45553;-78
2022/01/08 02:55:31;;;;;;;;;0.00;0.00;;;;;5.99;81.84;100877.59;5077483;28;45725;-78
2022/01/08 02:57:57;;;;;;;;;1.00;0.00;;;;;5.99;81.64;100892.34;5077378;28;45657;-78
2022/01/08 03:03:44;;;;;;;;;0.00;0.00;;;;;5.97;81.32;100895.00;5077421;28;45596;-77
2022/01/08 03:06:09;;;;;;;;;0.00;0.00;;;;;5.95;81.52;100896.84;5077570;28;45629;-77
2022/01/08 03:08:34;;;;;;;;;0.00;0.00;;;;;5.93;81.08;100885.69;5076888;28;45483;-77
2022/01/08 03:11:00;;;;;;;;;0.00;0.00;;;;;5.92;81.71;100898.75;5076953;28;45481;-77
2022/01/08 03:13:25;;;;;;;;;0.00;0.00;;;;;5.78;81.46;100863.78;5076925;28;45738;-77
2022/01/08 03:19:14;;;;;;;;;0.00;0.00;;;;;5.85;81.04;100888.59;5074748;28;45649;-78
2022/01/08 03:21:43;;;;;;;;;0.25;0.00;;;;;5.84;81.54;100881.72;5076779;28;46276;-77
2022/01/08 03:24:14;;;;;;;;;0.50;0.00;;;;;5.83;81.57;100874.81;5076304;28;45782;-78
2022/01/08 03:26:39;;;;;;;;;0.00;0.00;;;;;5.74;81.38;100854.47;5076868;28;45760;-77
2022/01/08 03:29:05;;;;;;;;;0.00;0.00;;;;;5.80;81.09;100867.19;5076623;28;46493;-78
2022/01/08 03:34:52;;;;;;;;;0.00;0.00;;;;;5.79;80.98;100860.28;5075296;28;45882;-77
2022/01/08 03:37:18;;;;;;;;;0.00;0.00;;;;;5.83;80.98;100867.03;5075706;28;45826;-76
2022/01/08 03:39:44;;;;;;;;;0.25;0.00;;;;;5.85;81.24;100875.59;5058470;28;46855;-78
2022/01/08 03:42:10;;;;;;;;;0.00;0.00;;;;;5.84;81.19;100873.91;5076494;28;45620;-78
2022/01/08 03:44:36;;;;;;;;;0.00;0.00;;;;;5.84;80.80;100878.25;5076033;28;45587;-77
2022/01/08 03:47:23;;;;;;;;;0.25;0.00;;;;;5.84;81.26;100878.25;5076206;28;45498;-79
2022/01/08 03:49:50;;;;;;;;;0.00;0.00;;;;;5.82;81.07;100878.34;5076023;28;46328;-77
2022/01/08 03:52:15;;;;;;;;;0.00;0.00;;;;;5.80;81.01;100871.53;5076131;28;47091;-78
2022/01/08 03:54:41;;;;;;;;;0.00;0.00;;;;;5.80;80.94;100877.56;5076426;28;45522;-78
2022/01/08 03:57:07;;;;;;;;;0.50;0.00;;;;;5.82;81.09;100872.31;5076718;28;45799;-78
2022/01/08 03:59:33;;;;;;;;;0.00;0.00;;;;;5.81;81.04;100871.47;5076098;28;45805;-79
2022/01/08 04:05:20;;;;;;;;;0.00;0.00;;;;;5.76;81.50;100857.00;5075683;28;45644;-79
2022/01/08 04:07:47;;;;;;;;;0.00;0.00;;;;;5.70;81.04;100849.50;5076044;28;45885;-77
2022/01/08 04:10:12;;;;;;;;;0.00;0.00;;;;;5.78;81.18;100869.00;5076215;28;46866;-77
2022/01/08 04:12:48;;;;;;;;;0.00;0.00;;;;;5.79;80.95;100872.44;5075483;28;46004;-77
2022/01/08 04:17:50;;;;;;;;;0.00;0.00;;;;;5.81;81.08;100879.28;5075683;28;45560;-76
2022/01/08 04:20:16;;;;;;;;;0.75;0.00;;;;;5.79;80.90;100870.69;5075630;28;45901;-75
2022/01/08 04:22:45;;;;;;;;;0.00;0.00;;;;;5.82;80.56;100865.38;5075482;28;45679;-78
2022/01/08 04:25:11;;;;;;;;;0.00;0.00;;;;;5.81;80.54;100862.81;5075685;28;45767;-76
2022/01/08 04:27:37;;;;;;;;;0.00;0.00;;;;;5.78;81.03;100863.78;5076264;28;45623;-78
2022/01/08 04:33:24;;;;;;;;;0.25;0.25;;;;;5.78;80.35;100858.59;5076017;28;45679;-77
2022/01/08 04:35:51;;;;;;;;;0.00;0.00;;;;;5.84;80.52;100862.66;5075770;28;45550;-77
2022/01/08 04:38:17;;;;;;;;;0.00;0.00;;;;;5.85;80.43;100865.19;5075950;28;45616;-78
2022/01/08 04:40:42;;;;;;;;;0.00;0.00;;;;;5.80;80.69;100863.72;5057926;28;46423;-77
2022/01/08 04:43:07;;;;;;;;;0.00;0.00;;;;;5.84;80.57;100858.31;5075160;28;46990;-78
2022/01/08 04:48:54;;;;;;;;;0.00;0.00;;;;;5.77;80.82;100848.28;5075015;28;45601;-76
2022/01/08 04:51:20;;;;;;;;;0.00;0.00;;;;;5.84;80.50;100852.25;5075257;28;46417;-77
2022/01/08 04:53:47;;;;;;;;;0.00;0.00;;;;;5.85;80.71;100877.34;5074989;28;46292;-78
2022/01/08 04:56:12;;;;;;;;;0.00;0.00;;;;;5.84;80.87;100881.72;5074598;28;45547;-76
2022/01/08 04:58:37;;;;;;;;;0.00;0.00;;;;;5.78;81.15;100871.59;5075527;28;45629;-76
2022/01/08 05:04:26;;;;;;;;;0.00;0.00;;;;;5.82;80.87;100893.13;5074500;28;45733;-77
2022/01/08 05:06:51;;;;;;;;;0.00;0.00;;;;;5.74;80.84;100896.06;5074343;28;45638;-77
2022/01/08 05:09:17;;;;;;;;;1.25;0.00;;;;;5.83;81.09;100913.81;5075399;28;45710;-78
2022/01/08 05:11:43;;;;;;;;;1.00;0.00;;;;;5.85;81.38;100911.16;5056953;28;46119;-77
2022/01/08 05:14:10;;;;;;;;;4.00;0.00;;;;;5.86;80.93;100902.44;5074809;28;47626;-77
2022/01/08 05:20:00;;;;;;;;;0.00;0.00;;;;;5.92;80.64;100885.75;5073624;28;45695;-77
2022/01/08 05:22:28;;;;;;;;;0.25;0.25;;;;;5.92;80.21;100881.41;5074087;28;46459;-77
2022/01/08 05:24:55;;;;;;;;;0.75;0.00;;;;;5.89;80.49;100874.56;5073146;28;45675;-75
2022/01/08 05:27:21;;;;;;;;;0.00;0.00;;;;;6.02;80.37;100890.44;5074456;28;45569;-77
2022/01/08 05:29:50;;;;;;;;;1.00;0.00;;;;;6.01;80.76;100877.50;5074393;28;45484;-77
2022/01/08 05:35:36;;;;;;;;;1.00;0.00;;;;;6.12;80.44;100878.66;5074210;28;45742;-76
2022/01/08 05:38:02;;;;;;;;;0.00;0.00;;;;;6.15;80.13;100865.53;5074051;28;45654;-76
2022/01/08 05:40:27;;;;;;;;;0.00;0.00;;;;;6.18;80.13;100861.94;5071029;28;45600;-75
2022/01/08 05:42:53;;;;;;;;;0.75;0.00;;;;;6.24;80.50;100867.69;5074325;28;45565;-78
2022/01/08 05:45:18;;;;;;;;;0.75;0.00;;;;;6.28;80.16;100865.75;5073784;28;46143;-76
2022/01/08 05:51:07;;;;;;;;;0.00;0.00;;;;;6.27;79.93;100841.50;5074424;28;45575;-76
2022/01/08 05:53:32;;;;;;;;;0.00;0.00;;;;;6.32;80.13;100839.50;5074611;28;45743;-78
2022/01/08 05:55:57;;;;;;;;;0.00;0.00;;;;;6.40;79.99;100846.94;5073940;28;46759;-77
2022/01/08 05:58:23;;;;;;;;;0.00;0.00;;;;;6.45;79.73;100846.72;5073063;28;45553;-78
2022/01/08 06:00:48;;;;;;;;;1.00;0.00;;;;;6.46;79.74;100846.66;5074339;28;45471;-78
2022/01/08 06:06:35;;;;;;;;;1.00;0.00;;;;;6.52;79.83;100853.31;5073721;28;45699;-78
2022/01/08 06:09:02;;;;;;;;;1.00;0.00;;;;;6.53;79.76;100853.19;5074291;28;45807;-77
2022/01/08 06:11:27;;;;;;;;;0.00;0.00;;;;;6.56;79.99;100853.06;5074552;28;45861;-77
2022/01/08 06:13:53;;;;;;;;;0.00;0.00;;;;;6.57;79.80;100862.56;5074436;28;45587;-75
2022/01/08 06:16:18;;;;;;;;;1.00;0.00;;;;;6.60;79.79;100862.41;5076489;28;47252;-76
2022/01/08 06:18:45;;;;;;;;;0.00;0.00;;;;;6.53;79.88;100853.19;5077656;28;45581;-77
2022/01/08 06:21:11;;;;;;;;;1.00;0.00;;;;;6.63;79.78;100858.81;5076399;28;45431;-78
2022/01/08 06:23:36;;;;;;;;;0.00;0.00;;;;;6.63;79.92;100843.19;5075599;28;46362;-77
2022/01/08 06:26:05;;;;;;;;;2.00;0.00;;;;;6.64;79.75;100842.28;5074442;28;45581;-77
2022/01/08 06:28:30;;;;;;;;;0.00;0.00;;;;;6.63;79.74;100832.78;5057418;28;45574;-77
2022/01/08 06:30:56;;;;;;;;;0.50;0.00;;;;;6.67;79.58;100831.69;5075360;28;45739;-77
2022/01/08 06:36:43;;;;;;;;;0.00;0.00;;;;;6.71;79.59;100843.63;5074402;28;46178;-77
2022/01/08 06:39:09;;;;;;;;;1.00;0.00;;;;;6.73;79.86;100844.41;5072595;28;45585;-77
2022/01/08 06:41:35;;;;;;;;;0.00;0.00;;;;;6.75;79.55;100848.59;5073780;28;45598;-78
2022/01/08 06:44:01;;;;;;;;;0.00;0.00;;;;;6.69;79.67;100819.44;5073892;28;46331;-78
2022/01/08 06:46:30;;;;;;;;;0.50;0.00;;;;;6.80;79.34;100831.91;5075198;28;46197;-77
2022/01/08 06:52:18;;;;;;;;;0.00;0.00;;;;;6.81;79.28;100826.59;5074506;28;45562;-77
2022/01/08 06:54:43;;;;;;;;;0.25;0.00;;;;;6.81;79.33;100816.19;5073985;28;45476;-78
2022/01/08 06:57:09;;;;;;;;;0.00;0.00;;;;;6.85;79.32;100822.09;5073926;28;45773;-76
2022/01/08 06:59:34;;;;;;;;;0.00;0.00;;;;;6.85;79.25;100827.31;5055326;28;45711;-77
2022/01/08 07:01:59;;;;;;;;;1.00;1.00;;;;;6.74;79.20;100809.63;5073920;28;45529;-78
2022/01/08 07:04:25;;;;;;;;;1.00;0.75;;;;;6.86;79.35;100834.16;5073816;28;46591;-78
2022/01/08 07:06:50;;;;;;;;;1.00;0.00;;;;;6.85;79.31;100822.94;5073512;28;45672;-77
2022/01/08 07:09:15;;;;;;;;;2.00;0.00;;;;;6.87;79.21;100810.66;5073928;28;45557;-78
2022/01/08 07:11:41;;;;;;;;;0.75;0.75;;;;;6.81;79.04;100797.13;5077429;28;45587;-78
2022/01/08 07:14:06;;;;;;;;;1.00;0.00;;;;;6.86;79.13;100800.31;5076646;28;46532;-78
2022/01/08 07:16:32;;;;;;;;;0.00;0.00;;;;;6.89;79.26;100802.78;5077116;28;45625;-78
2022/01/08 07:22:59;;;;;;;;;2.00;1.00;;;;;6.84;78.98;100792.59;5075968;28;45657;-78
2022/01/08 07:25:25;;;;;;;;;0.00;0.00;;;;;6.85;79.19;100796.91;5075182;28;47512;-78
2022/01/08 07:27:51;;;;;;;;;0.00;0.00;;;;;6.86;78.94;100785.53;5076454;28;46061;-78
2022/01/08 07:30:16;;;;;;;;;1.00;1.00;;;;;6.78;79.04;100751.28;5076923;28;45469;-77
2022/01/08 07:32:43;;;;;;;;;2.00;1.00;;;;;6.84;78.97;100778.75;5076761;28;45692;-77
2022/01/08 07:35:10;;;;;;;;;3.00;1.25;;;;;6.85;79.22;100767.41;5076646;28;45651;-77
2022/01/08 07:37:35;;;;;;;;;1.75;0.75;;;;;6.79;79.05;100755.56;5076909;28;46057;-77
2022/01/08 07:40:01;;;;;;;;;1.75;1.00;;;;;6.84;78.91;100771.78;5076673;28;45881;-77
2022/01/08 07:42:26;;;;;;;;;1.25;1.00;;;;;6.81;79.15;100764.09;5076677;28;45842;-76
2022/01/08 07:44:52;;;;;;;;;3.00;2.00;;;;;6.85;79.15;100770.03;5076659;28;46218;-76
2022/01/08 07:47:17;;;;;;;;;1.00;1.00;;;;;6.86;78.95;100776.88;5076632;28;45634;-78
2022/01/08 07:53:04;;;;;;;;;2.00;1.00;;;;;6.84;78.83;100769.16;5076456;28;45666;-77
2022/01/08 07:55:30;;;;;;;;;2.00;1.00;;;;;6.90;79.09;100771.44;5076059;28;45664;-78
2022/01/08 07:57:55;;;;;;;;;2.50;1.00;;;;;6.91;79.08;100767.91;5076574;28;45621;-77
2022/01/08 08:00:20;;;;;;;;;1.00;1.00;;;;;6.91;78.92;100760.09;5076664;28;45569;-77
2022/01/08 08:02:46;;;;;;;;;1.00;1.00;;;;;6.94;79.05;100756.50;5075884;28;45892;-77
2022/01/08 08:05:11;;;;;;;;;1.50;1.50;;;;;6.93;79.15;100745.22;5075625;28;47239;-77
2022/01/08 08:07:38;;;;;;;;;1.00;1.00;;;;;6.97;79.09;100756.31;5076081;28;45694;-77
2022/01/08 08:10:10;;;;;;;;;5.00;2.25;;;;;6.97;78.97;100749.34;5076124;28;45877;-79
2022/01/08 08:12:37;;;;;;;;;2.00;1.25;;;;;7.01;79.05;100750.03;5077072;28;45614;-78
2022/01/08 08:15:05;;;;;;;;;2.25;1.50;;;;;6.95;79.12;100734.75;5076407;28;45650;-76
2022/01/08 08:17:30;;;;;;;;;1.00;1.00;;;;;7.01;79.22;100732.66;5076021;28;46044;-77
2022/01/08 08:23:17;;;;;;;;;2.75;2.00;;;;;7.09;79.08;100732.22;5074020;28;45664;-79
2022/01/08 08:25:42;;;;;;;;;4.00;2.00;;;;;7.11;79.20;100725.16;5076377;28;46435;-78
2022/01/08 08:28:08;;;;;;;;;3.25;3.25;;;;;7.11;79.18;100730.38;5076367;28;45606;-78
2022/01/08 08:30:33;;;;;;;;;3.00;2.25;;;;;7.09;79.05;100716.59;5076106;28;45498;-78
2022/01/08 08:33:00;;;;;;;;;2.50;2.50;;;;;7.12;79.04;100714.69;5076391;28;45795;-78
2022/01/08 08:35:26;;;;;;;;;4.50;2.00;;;;;7.15;79.27;100701.47;5076384;28;46442;-78
2022/01/08 08:37:51;;;;;;;;;3.00;3.00;;;;;7.23;79.12;100710.63;5075991;28;45978;-79
2022/01/08 08:40:17;;;;;;;;;2.00;2.00;;;;;7.25;79.00;100707.00;5075722;28;45824;-76
2022/01/08 08:42:42;;;;;;;;;3.25;2.00;;;;;7.27;79.27;100699.94;5057604;28;45874;-77
2022/01/08 08:45:10;;;;;;;;;4.25;2.50;;;;;7.30;79.16;100699.75;5075804;28;46577;-79
2022/01/08 08:47:35;;;;;;;;;5.25;3.50;;;;;7.34;79.36;100690.03;5075847;28;46294;-76
2022/01/08 08:53:22;;;;;;;;;6.00;3.00;;;;;7.40;79.30;100682.69;5075426;28;45720;-77
2022/01/08 08:55:48;;;;;;;;;4.25;2.75;;;;;7.43;79.41;100674.72;5075859;28;45615;-76
2022/01/08 08:58:14;;;;;;;;;4.50;2.25;;;;;7.46;79.45;100674.50;5057027;28;46313;-78
2022/01/08 09:00:40;;;;;;;;;5.00;3.00;;;;;7.50;79.52;100677.81;5075342;28;45575;-77
2022/01/08 09:03:05;;;;;;;;;3.50;2.50;;;;;7.53;79.47;100683.66;5075470;28;45772;-79
2022/01/08 09:08:53;;;;;;;;;3.00;2.25;;;;;7.53;79.60;100655.00;5075468;28;45790;-76
2022/01/08 09:11:19;;;;;;;;;5.00;2.00;;;;;7.58;79.59;100658.19;5075555;28;45612;-78
2022/01/08 09:13:44;;;;;;;;;3.00;3.00;;;;;7.68;79.71;100658.47;5075779;28;45730;-78
2022/01/08 09:16:10;;;;;;;;;4.00;3.00;;;;;7.75;79.80;100662.41;5077172;28;46521;-75
2022/01/08 09:18:36;;;;;;;;;2.50;2.00;;;;;7.68;79.99;100642.84;5076626;28;46325;-76
2022/01/08 09:21:02;;;;;;;;;3.00;2.00;;;;;7.74;79.80;100632.03;5076580;28;45609;-78
2022/01/08 09:23:28;;;;;;;;;5.00;2.50;;;;;7.88;80.07;100649.50;5057575;28;45639;-78
2022/01/08 09:25:53;;;;;;;;;3.50;3.50;;;;;7.93;80.05;100639.63;5075580;28;45611;-78
2022/01/08 09:28:22;;;;;;;;;3.00;2.75;;;;;7.87;79.89;100613.91;5075111;28;45585;-79
2022/01/08 09:30:47;;;;;;;;;2.75;2.00;;;;;8.05;80.01;100635.41;5074107;28;45759;-77
2022/01/08 09:33:12;;;;;;;;;2.00;2.00;;;;;8.09;79.95;100637.78;5055591;28;45856;-78
2022/01/08 09:39:00;;;;;;;;;2.75;2.75;;;;;8.14;80.06;100630.50;5074693;28;46064;-78
2022/01/08 09:41:28;;;;;;;;;2.75;2.00;;;;;8.24;80.05;100623.81;5075244;28;45431;-78
2022/01/08 09:43:53;;;;;;;;;5.00;3.00;;;;;8.22;80.13;100623.03;5056238;28;45895;-79
2022/01/08 09:46:21;;;;;;;;;5.50;3.00;;;;;8.32;80.23;100624.19;5056194;28;46411;-77
2022/01/08 09:48:47;;;;;;;;;2.00;2.00;;;;;8.30;80.26;100610.41;5075392;28;46083;-77
2022/01/08 09:51:13;;;;;;;;;1.75;1.00;;;;;8.35;80.49;100605.75;5075137;28;45552;-79
2022/01/08 09:53:39;;;;;;;;;3.00;2.00;;;;;8.39;80.41;100607.22;5075261;28;45514;-78
2022/01/08 09:56:04;;;;;;;;;2.25;2.25;;;;;8.32;80.42;100576.34;5074840;28;45450;-79
2022/01/08 09:58:30;;;;;;;;;3.00;2.00;;;;;8.45;80.37;100594.72;5074952;28;45775;-78
2022/01/08 10:00:55;;;;;;;;;3.00;2.75;;;;;8.47;80.52;100588.47;5075202;28;45578;-78
2022/01/08 10:03:26;;;;;;;;;5.00;3.00;;;;;8.56;80.53;100585.28;5074522;28;45572;-78
2022/01/08 10:09:13;;;;;;;;;3.00;3.00;;;;;8.65;80.50;100557.72;5073873;28;46091;-78
2022/01/08 10:11:47;;;;;;;;;2.25;2.25;;;;;8.73;80.67;100563.31;5073680;28;45814;-78
2022/01/08 10:14:17;;;;;;;;;6.25;3.00;;;;;8.76;80.47;100569.19;5073809;28;45698;-76
2022/01/08 10:19:28;;;;;;;;;3.50;3.50;;;;;8.84;80.42;100553.88;5073873;28;45803;-77
2022/01/08 10:21:57;;;;;;;;;6.00;4.50;;;;;8.87;80.27;100560.66;5073829;28;45984;-78
2022/01/08 10:24:28;;;;;;;;;9.75;3.25;;;;;8.90;80.59;100547.41;5074153;28;45881;-79
2022/01/08 10:27:02;;;;;;;;;8.50;5.00;;;;;8.56;80.95;100488.69;5055870;28;47456;-79
2022/01/08 10:29:27;;;;;;;;;5.00;5.00;;;;;8.92;80.69;100534.22;5073925;28;45501;-79
2022/01/08 10:31:56;;;;;;;;;6.50;2.50;;;;;9.01;80.77;100544.09;5074766;28;45560;-76
2022/01/08 10:34:24;;;;;;;;;5.00;2.50;;;;;9.04;80.91;100536.03;5077592;28;45884;-79
2022/01/08 10:36:56;;;;;;;;;6.50;2.50;;;;;9.06;80.80;100537.63;5063215;28;45626;-82
2022/01/08 10:39:25;;;;;;;;;6.75;3.00;;;;;9.09;81.04;100520.88;5082697;28;45969;-84
2022/01/08 10:41:53;;;;;;;;;4.75;3.00;;;;;9.10;80.87;100518.19;5075141;28;45623;-78
2022/01/08 10:44:21;;;;;;;;;4.50;3.00;;;;;9.13;80.75;100510.13;5075383;28;45729;-81
2022/01/08 10:47:07;;;;;;;;;4.75;3.25;;;;;9.21;81.06;100509.63;5077837;28;45858;-80
2022/01/08 10:49:42;;;;;;;;;8.00;4.75;;;;;9.24;81.09;100504.19;5077962;28;46553;-80
2022/01/08 10:52:10;;;;;;;;;7.00;5.00;;;;;9.24;81.12;100491.09;5060542;28;45970;-78
2022/01/08 10:54:37;;;;;;;;;5.50;3.00;;;;;9.28;81.15;100484.75;5079707;28;45582;-80
2022/01/08 10:57:07;;;;;;;;;3.00;2.25;;;;;9.32;81.09;100482.75;5080235;28;47248;-77
2022/01/08 10:59:36;;;;;;;;;5.25;2.50;;;;;9.34;81.07;100467.81;5079968;28;46478;-81
2022/01/08 11:02:03;;;;;;;;;2.00;2.00;;;;;9.34;80.97;100460.78;5081403;28;45639;-78
2022/01/08 11:04:48;;;;;;;;;5.50;2.75;;;;;9.36;81.10;100460.69;5081094;28;45676;-86
2022/01/08 11:07:22;;;;;;;;;4.75;3.00;;;;;9.33;81.04;100451.28;5079114;28;46358;-83
2022/01/08 11:09:54;;;;;;;;;3.00;2.00;;;;;8.97;81.26;100384.06;5079766;28;46035;-84
2022/01/08 11:12:28;;;;;;;;;7.25;3.00;;;;;9.28;81.26;100422.81;5078791;28;45612;-84
2022/01/08 11:17:27;;;;;;;;;5.00;3.00;;;;;9.36;81.08;100424.94;5080153;28;45616;-77
2022/01/08 11:19:56;;;;;;;;;2.75;1.75;;;;;9.25;81.13;100401.31;5077971;28;46520;-83
2022/01/08 11:22:24;;;;;;;;;1.00;0.00;;;;;9.37;81.28;100418.75;5079042;28;45846;-80
2022/01/08 11:25:11;;;;;;;;;6.00;3.00;;;;;9.37;81.13;100410.09;5078619;28;45370;-82
2022/01/08 11:27:40;;;;;;;;;4.25;3.00;;;;;9.38;81.19;100396.06;5077788;28;45887;-80
2022/01/08 11:30:14;;;;;;;;;5.50;3.00;;;;;9.27;81.04;100368.91;5077338;28;46253;-79
2022/01/08 11:32:41;;;;;;;;;3.75;2.50;;;;;9.33;80.94;100365.03;5060090;28;45790;-78
2022/01/08 11:35:09;;;;;;;;;3.50;2.00;;;;;9.41;81.13;100374.94;5077875;28;45594;-81
2022/01/08 11:37:35;;;;;;;;;7.25;3.00;;;;;9.44;80.99;100364.28;5077873;28;46464;-85
2022/01/08 11:40:05;;;;;;;;;1.75;1.75;;;;;9.42;81.06;100353.06;5077530;28;46170;-75
2022/01/08 11:42:33;;;;;;;;;2.00;1.00;;;;;9.47;81.23;100346.56;5077557;28;45593;-80
2022/01/08 11:45:00;;;;;;;;;3.00;3.00;;;;;9.48;81.03;100339.56;5077788;28;45486;-80
2022/01/08 11:47:29;;;;;;;;;4.25;2.25;;;;;9.48;80.90;100335.19;5076864;28;46436;-79
2022/01/08 11:49:55;;;;;;;;;5.50;3.00;;;;;9.45;81.00;100321.47;5076606;28;45868;-78
2022/01/08 11:52:22;;;;;;;;;3.00;3.00;;;;;9.49;80.82;100315.94;5076657;28;45552;-82
2022/01/08 11:54:50;;;;;;;;;3.00;3.00;;;;;9.52;80.78;100301.78;5077288;28;45833;-81
2022/01/08 11:57:24;;;;;;;;;2.75;2.25;;;;;9.54;80.94;100294.69;5075791;28;46417;-80
2022/01/08 11:59:56;;;;;;;;;1.00;1.00;;;;;9.49;80.80;100283.72;5076462;28;46128;-83
2022/01/08 12:02:33;;;;;;;;;2.75;2.00;;;;;9.57;81.01;100276.97;5076199;28;45646;-83
2022/01/08 12:04:59;;;;;;;;;6.50;3.50;;;;;9.47;81.11;100244.59;5076768;28;45718;-83
2022/01/08 12:10:56;;;;;;;;;5.75;2.25;;;;;9.59;80.73;100243.72;5079642;28;45581;-81
2022/01/08 12:13:45;;;;;;;;;4.00;2.25;;;;;9.61;81.10;100227.91;5080304;28;45721;-76
2022/01/08 12:16:39;;;;;;;;;3.75;2.00;;;;;9.62;81.08;100217.31;5077618;28;45495;-77
2022/01/08 12:19:07;;;;;;;;;3.50;2.00;;;;;9.63;80.81;100205.94;5076640;28;45520;-80
2022/01/08 12:21:33;;;;;;;;;3.00;2.00;;;;;9.65;80.94;100196.19;5077109;28;46086;-78
2022/01/08 12:24:20;;;;;;;;;3.50;3.00;;;;;9.67;81.12;100191.66;5075494;28;45806;-76
2022/01/08 12:26:46;;;;;;;;;2.25;2.00;;;;;9.68;80.81;100177.66;5075744;28;45615;-78
2022/01/08 12:29:32;;;;;;;;;1.75;1.00;;;;;9.70;80.84;100169.69;5076419;28;46593;-80
2022/01/08 12:32:27;;;;;;;;;3.75;2.25;;;;;9.73;80.87;100153.75;5075421;28;46194;-78
2022/01/08 12:35:01;;;;;;;;;2.75;2.00;;;;;9.74;80.98;100144.13;5075815;28;45792;-80
2022/01/08 12:37:38;;;;;;;;;3.25;2.25;;;;;9.76;80.66;100134.41;5075928;28;45759;-73
2022/01/08 12:40:04;;;;;;;;;6.50;2.00;;;;;9.72;80.79;100115.47;5074864;28;46426;-75
2022/01/08 12:42:30;;;;;;;;;3.25;2.00;;;;;9.78;80.78;100111.56;5075038;28;46334;-81
2022/01/08 12:45:07;;;;;;;;;3.00;2.75;;;;;9.75;80.87;100096.94;5075316;28;45478;-74
2022/01/08 12:47:50;;;;;;;;;3.75;2.50;;;;;9.80;80.83;100089.56;5077173;28;45583;-75
2022/01/08 12:50:22;;;;;;;;;3.75;2.00;;;;;9.81;80.96;100091.25;5075274;28;45729;-73
2022/01/08 12:53:09;;;;;;;;;3.00;2.25;;;;;9.81;80.66;100078.16;5074790;28;47282;-74
2022/01/08 12:55:42;;;;;;;;;6.00;2.75;;;;;9.82;80.60;100076.38;5074691;28;45561;-73
2022/01/08 12:58:19;;;;;;;;;3.25;2.00;;;;;9.83;80.83;100055.31;5056893;28;45834;-77
2022/01/08 13:01:01;;;;;;;;;2.75;2.25;;;;;9.83;80.73;100044.03;5074577;28;46419;-76
2022/01/08 13:03:32;;;;;;;;;2.50;2.00;;;;;9.82;80.92;100034.53;5074521;28;45538;-76
2022/01/08 13:09:19;;;;;;;;;6.00;3.75;;;;;9.82;80.83;100017.06;5074337;28;45545;-77
2022/01/08 13:11:46;;;;;;;;;5.50;4.50;;;;;9.81;80.60;100011.94;5074835;28;46296;-77
2022/01/08 13:14:14;;;;;;;;;11.25;6.25;;;;;9.82;80.90;99998.75;5056696;28;47039;-78
2022/01/08 13:16:45;;;;;;;;;3.25;2.00;;;;;9.79;80.88;99996.34;5075451;28;45664;-77
2022/01/08 13:19:13;;;;;;;;;2.50;1.25;;;;;9.79;80.77;99970.19;5075039;28;45799;-76
2022/01/08 13:25:14;;;;;;;;;6.00;3.00;;;;;9.77;80.65;99945.13;5073499;28;45987;-77
2022/01/08 13:27:40;;;;;;;;;6.00;3.00;;;;;9.81;80.99;99939.53;5075306;28;45579;-77
2022/01/08 13:30:09;;;;;;;;;3.75;2.75;;;;;9.85;81.01;99924.41;5075084;28;45569;-79